sensor_id;sensor_type;location;lat;lon;timestamp;P1;durP1;ratioP1;P2;durP2;ratioP2
22565;SDS011;11449;51.330;19.378;2022-10-04T00:01:52;43.70;;;8.93;;
22565;SDS011;11449;51.330;19.378;2022-10-04T00:06:54;42.50;;;9.10;;
22565;SDS011;11449;51.330;19.378;2022-10-04T00:11:56;48.05;;;8.45;;
22565;SDS011;11449;51.330;19.378;2022-10-04T00:16:57;43.50;;;8.63;;
22565;SDS011;11449;51.330;19.378;2022-10-04T00:32:25;50.60;;;9.95;;
22565;SDS011;11449;51.330;19.378;2022-10-04T00:37:31;40.60;;;7.62;;
22565;SDS011;11449;51.330;19.378;2022-10-04T00:52:49;34.83;;;7.05;;
22565;SDS011;11449;51.330;19.378;2022-10-04T00:57:50;45.15;;;7.70;;
22565;SDS011;11449;51.330;19.378;2022-10-04T01:03:06;39.35;;;7.10;;
22565;SDS011;11449;51.330;19.378;2022-10-04T01:33:44;43.35;;;7.55;;
22565;SDS011;11449;51.330;19.378;2022-10-04T01:38:46;36.35;;;7.92;;
22565;SDS011;11449;51.330;19.378;2022-10-04T01:43:47;37.33;;;7.85;;
22565;SDS011;11449;51.330;19.378;2022-10-04T01:48:50;42.78;;;9.10;;
22565;SDS011;11449;51.330;19.378;2022-10-04T01:53:57;40.17;;;7.83;;
22565;SDS011;11449;51.330;19.378;2022-10-04T01:58:57;40.67;;;7.78;;
22565;SDS011;11449;51.330;19.378;2022-10-04T02:03:59;42.00;;;8.55;;
22565;SDS011;11449;51.330;19.378;2022-10-04T02:09:00;30.95;;;7.62;;
22565;SDS011;11449;51.330;19.378;2022-10-04T02:14:04;29.15;;;6.87;;
22565;SDS011;11449;51.330;19.378;2022-10-04T02:19:07;41.42;;;7.87;;
22565;SDS011;11449;51.330;19.378;2022-10-04T02:24:08;44.53;;;8.53;;
22565;SDS011;11449;51.330;19.378;2022-10-04T02:29:10;51.25;;;9.18;;
22565;SDS011;11449;51.330;19.378;2022-10-04T02:34:11;51.58;;;9.13;;
22565;SDS011;11449;51.330;19.378;2022-10-04T02:39:13;44.08;;;8.28;;
22565;SDS011;11449;51.330;19.378;2022-10-04T02:44:25;45.35;;;9.53;;
22565;SDS011;11449;51.330;19.378;2022-10-04T02:49:28;38.08;;;7.45;;
22565;SDS011;11449;51.330;19.378;2022-10-04T02:54:36;42.05;;;7.90;;
22565;SDS011;11449;51.330;19.378;2022-10-04T02:59:37;46.48;;;7.92;;
22565;SDS011;11449;51.330;19.378;2022-10-04T03:04:39;49.60;;;8.43;;
22565;SDS011;11449;51.330;19.378;2022-10-04T03:09:39;33.20;;;6.33;;
22565;SDS011;11449;51.330;19.378;2022-10-04T03:14:40;40.48;;;6.95;;
22565;SDS011;11449;51.330;19.378;2022-10-04T03:19:42;28.20;;;5.87;;
22565;SDS011;11449;51.330;19.378;2022-10-04T03:24:47;28.20;;;5.60;;
22565;SDS011;11449;51.330;19.378;2022-10-04T03:29:49;33.60;;;6.05;;
22565;SDS011;11449;51.330;19.378;2022-10-04T03:39:59;46.15;;;7.15;;
22565;SDS011;11449;51.330;19.378;2022-10-04T03:45:10;53.28;;;7.78;;
22565;SDS011;11449;51.330;19.378;2022-10-04T03:50:12;45.43;;;7.78;;
22565;SDS011;11449;51.330;19.378;2022-10-04T03:55:13;29.82;;;5.53;;
22565;SDS011;11449;51.330;19.378;2022-10-04T04:00:16;33.73;;;6.22;;
22565;SDS011;11449;51.330;19.378;2022-10-04T04:05:18;30.27;;;5.78;;
22565;SDS011;11449;51.330;19.378;2022-10-04T04:10:25;35.65;;;6.28;;
22565;SDS011;11449;51.330;19.378;2022-10-04T04:15:26;37.93;;;6.87;;
22565;SDS011;11449;51.330;19.378;2022-10-04T04:20:38;27.40;;;5.60;;
22565;SDS011;11449;51.330;19.378;2022-10-04T04:25:41;35.80;;;8.08;;
22565;SDS011;11449;51.330;19.378;2022-10-04T04:30:44;44.38;;;7.35;;
22565;SDS011;11449;51.330;19.378;2022-10-04T04:35:45;27.30;;;6.62;;
22565;SDS011;11449;51.330;19.378;2022-10-04T04:40:46;45.03;;;7.45;;
22565;SDS011;11449;51.330;19.378;2022-10-04T04:45:48;34.13;;;6.62;;
22565;SDS011;11449;51.330;19.378;2022-10-04T04:50:52;45.43;;;8.08;;
22565;SDS011;11449;51.330;19.378;2022-10-04T04:55:59;44.98;;;8.75;;
22565;SDS011;11449;51.330;19.378;2022-10-04T05:06:27;38.73;;;8.58;;
22565;SDS011;11449;51.330;19.378;2022-10-04T05:11:29;28.27;;;6.62;;
22565;SDS011;11449;51.330;19.378;2022-10-04T05:16:35;30.02;;;6.60;;
22565;SDS011;11449;51.330;19.378;2022-10-04T05:21:34;34.53;;;7.42;;
22565;SDS011;11449;51.330;19.378;2022-10-04T05:26:36;34.40;;;7.85;;
22565;SDS011;11449;51.330;19.378;2022-10-04T05:36:52;38.98;;;9.45;;
22565;SDS011;11449;51.330;19.378;2022-10-04T05:41:56;37.35;;;8.68;;
22565;SDS011;11449;51.330;19.378;2022-10-04T05:46:58;37.25;;;8.83;;
22565;SDS011;11449;51.330;19.378;2022-10-04T05:52:04;36.88;;;9.60;;
22565;SDS011;11449;51.330;19.378;2022-10-04T06:07:45;34.05;;;8.95;;
22565;SDS011;11449;51.330;19.378;2022-10-04T06:12:56;44.13;;;10.53;;
22565;SDS011;11449;51.330;19.378;2022-10-04T06:23:00;34.90;;;8.48;;
22565;SDS011;11449;51.330;19.378;2022-10-04T06:28:14;35.90;;;8.70;;
22565;SDS011;11449;51.330;19.378;2022-10-04T06:54:18;38.85;;;10.15;;
22565;SDS011;11449;51.330;19.378;2022-10-04T07:04:27;37.10;;;11.57;;
22565;SDS011;11449;51.330;19.378;2022-10-04T07:09:26;41.13;;;12.30;;
22565;SDS011;11449;51.330;19.378;2022-10-04T07:14:30;38.48;;;12.03;;
22565;SDS011;11449;51.330;19.378;2022-10-04T07:19:35;40.65;;;11.40;;
22565;SDS011;11449;51.330;19.378;2022-10-04T07:29:57;40.23;;;11.40;;
22565;SDS011;11449;51.330;19.378;2022-10-04T07:40:03;40.15;;;10.80;;
22565;SDS011;11449;51.330;19.378;2022-10-04T07:45:24;39.58;;;10.90;;
22565;SDS011;11449;51.330;19.378;2022-10-04T07:50:29;43.23;;;11.18;;
22565;SDS011;11449;51.330;19.378;2022-10-04T08:00:49;40.20;;;10.00;;
22565;SDS011;11449;51.330;19.378;2022-10-04T08:05:54;37.03;;;9.68;;
22565;SDS011;11449;51.330;19.378;2022-10-04T08:16:02;38.17;;;10.60;;
22565;SDS011;11449;51.330;19.378;2022-10-04T08:21:05;35.60;;;10.13;;
22565;SDS011;11449;51.330;19.378;2022-10-04T08:36:48;39.33;;;9.83;;
22565;SDS011;11449;51.330;19.378;2022-10-04T08:42:08;39.70;;;9.15;;
22565;SDS011;11449;51.330;19.378;2022-10-04T09:08:16;32.28;;;8.55;;
22565;SDS011;11449;51.330;19.378;2022-10-04T10:05:21;31.52;;;7.28;;
22565;SDS011;11449;51.330;19.378;2022-10-04T10:09:58;40.05;;;8.33;;
22565;SDS011;11449;51.330;19.378;2022-10-04T10:41:21;39.27;;;7.47;;
22565;SDS011;11449;51.330;19.378;2022-10-04T11:12:26;348.65;;;142.82;;
22565;SDS011;11449;51.330;19.378;2022-10-04T11:17:34;30.65;;;5.62;;
22565;SDS011;11449;51.330;19.378;2022-10-04T11:43:22;19.17;;;4.62;;
22565;SDS011;11449;51.330;19.378;2022-10-04T12:09:13;33.35;;;5.40;;
22565;SDS011;11449;51.330;19.378;2022-10-04T12:14:20;38.78;;;11.18;;
22565;SDS011;11449;51.330;19.378;2022-10-04T12:45:11;29.90;;;8.73;;
22565;SDS011;11449;51.330;19.378;2022-10-04T13:00:24;24.52;;;4.50;;
22565;SDS011;11449;51.330;19.378;2022-10-04T13:05:28;22.32;;;4.95;;
22565;SDS011;11449;51.330;19.378;2022-10-04T13:21:19;25.88;;;5.00;;
22565;SDS011;11449;51.330;19.378;2022-10-04T13:42:11;21.93;;;5.17;;
22565;SDS011;11449;51.330;19.378;2022-10-04T14:03:24;23.93;;;4.60;;
22565;SDS011;11449;51.330;19.378;2022-10-04T14:40:14;21.82;;;4.58;;
22565;SDS011;11449;51.330;19.378;2022-10-04T14:50:27;28.42;;;5.70;;
22565;SDS011;11449;51.330;19.378;2022-10-04T15:05:41;23.85;;;5.17;;
22565;SDS011;11449;51.330;19.378;2022-10-04T15:10:48;38.30;;;6.92;;
22565;SDS011;11449;51.330;19.378;2022-10-04T15:41:47;20.57;;;5.47;;
22565;SDS011;11449;51.330;19.378;2022-10-04T15:46:53;35.33;;;7.33;;
22565;SDS011;11449;51.330;19.378;2022-10-04T15:57:16;34.38;;;7.60;;
22565;SDS011;11449;51.330;19.378;2022-10-04T16:18:02;40.95;;;9.20;;
22565;SDS011;11449;51.330;19.378;2022-10-04T16:28:35;44.63;;;13.10;;
22565;SDS011;11449;51.330;19.378;2022-10-04T16:33:35;44.55;;;12.78;;
22565;SDS011;11449;51.330;19.378;2022-10-04T16:38:43;50.28;;;15.60;;
22565;SDS011;11449;51.330;19.378;2022-10-04T16:43:52;51.53;;;16.87;;
22565;SDS011;11449;51.330;19.378;2022-10-04T16:48:54;62.62;;;18.52;;
22565;SDS011;11449;51.330;19.378;2022-10-04T16:53:58;74.90;;;22.98;;
22565;SDS011;11449;51.330;19.378;2022-10-04T16:59:09;69.67;;;23.65;;
22565;SDS011;11449;51.330;19.378;2022-10-04T17:09:31;56.83;;;16.97;;
22565;SDS011;11449;51.330;19.378;2022-10-04T17:14:40;67.78;;;17.70;;
22565;SDS011;11449;51.330;19.378;2022-10-04T17:24:44;71.42;;;18.55;;
22565;SDS011;11449;51.330;19.378;2022-10-04T17:29:50;79.47;;;19.65;;
22565;SDS011;11449;51.330;19.378;2022-10-04T17:50:38;80.00;;;29.23;;
22565;SDS011;11449;51.330;19.378;2022-10-04T17:55:54;73.47;;;23.18;;
22565;SDS011;11449;51.330;19.378;2022-10-04T18:06:01;70.37;;;22.13;;
22565;SDS011;11449;51.330;19.378;2022-10-04T18:11:14;61.70;;;22.07;;
22565;SDS011;11449;51.330;19.378;2022-10-04T18:26:20;97.53;;;25.62;;
22565;SDS011;11449;51.330;19.378;2022-10-04T18:31:29;96.65;;;23.07;;
22565;SDS011;11449;51.330;19.378;2022-10-04T18:36:29;72.12;;;16.77;;
22565;SDS011;11449;51.330;19.378;2022-10-04T18:41:31;72.78;;;18.37;;
22565;SDS011;11449;51.330;19.378;2022-10-04T18:46:53;74.72;;;19.92;;
22565;SDS011;11449;51.330;19.378;2022-10-04T18:52:17;74.92;;;19.98;;
22565;SDS011;11449;51.330;19.378;2022-10-04T19:07:27;79.12;;;20.32;;
22565;SDS011;11449;51.330;19.378;2022-10-04T19:12:30;79.37;;;20.05;;
22565;SDS011;11449;51.330;19.378;2022-10-04T19:17:34;87.22;;;22.87;;
22565;SDS011;11449;51.330;19.378;2022-10-04T19:27:48;70.60;;;21.12;;
22565;SDS011;11449;51.330;19.378;2022-10-04T19:38:48;68.05;;;20.80;;
22565;SDS011;11449;51.330;19.378;2022-10-04T19:43:15;79.82;;;22.13;;
22565;SDS011;11449;51.330;19.378;2022-10-04T19:48:18;78.72;;;21.25;;
22565;SDS011;11449;51.330;19.378;2022-10-04T19:58:41;74.75;;;18.65;;
22565;SDS011;11449;51.330;19.378;2022-10-04T20:03:44;83.67;;;19.60;;
22565;SDS011;11449;51.330;19.378;2022-10-04T20:08:53;98.67;;;22.60;;
22565;SDS011;11449;51.330;19.378;2022-10-04T20:19:16;85.97;;;21.85;;
22565;SDS011;11449;51.330;19.378;2022-10-04T20:24:17;75.15;;;19.73;;
22565;SDS011;11449;51.330;19.378;2022-10-04T20:49:47;390.25;;;120.50;;
22565;SDS011;11449;51.330;19.378;2022-10-04T20:54:53;376.42;;;114.47;;
22565;SDS011;11449;51.330;19.378;2022-10-04T20:59:52;364.70;;;108.57;;
22565;SDS011;11449;51.330;19.378;2022-10-04T21:05:13;409.20;;;119.10;;
22565;SDS011;11449;51.330;19.378;2022-10-04T21:10:15;377.70;;;111.12;;
22565;SDS011;11449;51.330;19.378;2022-10-04T21:20:41;411.68;;;113.28;;
22565;SDS011;11449;51.330;19.378;2022-10-04T21:25:30;354.13;;;106.70;;
22565;SDS011;11449;51.330;19.378;2022-10-04T21:30:28;327.25;;;105.83;;
22565;SDS011;11449;51.330;19.378;2022-10-04T21:35:29;92.75;;;17.48;;
22565;SDS011;11449;51.330;19.378;2022-10-04T21:40:29;123.15;;;38.42;;
22565;SDS011;11449;51.330;19.378;2022-10-04T21:45:30;142.75;;;47.23;;
22565;SDS011;11449;51.330;19.378;2022-10-04T21:50:31;174.68;;;75.60;;
22565;SDS011;11449;51.330;19.378;2022-10-04T21:55:32;231.13;;;99.50;;
22565;SDS011;11449;51.330;19.378;2022-10-04T22:00:33;209.75;;;87.55;;
22565;SDS011;11449;51.330;19.378;2022-10-04T22:05:34;226.32;;;94.47;;
22565;SDS011;11449;51.330;19.378;2022-10-04T22:10:35;245.67;;;105.12;;
22565;SDS011;11449;51.330;19.378;2022-10-04T22:15:35;283.02;;;108.15;;
22565;SDS011;11449;51.330;19.378;2022-10-04T22:20:36;310.30;;;109.30;;
22565;SDS011;11449;51.330;19.378;2022-10-04T22:25:37;329.98;;;114.55;;
22565;SDS011;11449;51.330;19.378;2022-10-04T22:30:39;316.85;;;114.42;;
22565;SDS011;11449;51.330;19.378;2022-10-04T22:35:40;369.90;;;119.82;;
22565;SDS011;11449;51.330;19.378;2022-10-04T22:40:41;330.40;;;116.08;;
22565;SDS011;11449;51.330;19.378;2022-10-04T22:45:42;323.00;;;111.22;;
22565;SDS011;11449;51.330;19.378;2022-10-04T22:50:43;346.23;;;116.05;;
22565;SDS011;11449;51.330;19.378;2022-10-04T22:55:44;386.43;;;119.30;;
22565;SDS011;11449;51.330;19.378;2022-10-04T23:00:46;439.00;;;127.00;;
22565;SDS011;11449;51.330;19.378;2022-10-04T23:05:47;412.68;;;118.65;;
22565;SDS011;11449;51.330;19.378;2022-10-04T23:10:51;348.25;;;114.32;;
22565;SDS011;11449;51.330;19.378;2022-10-04T23:15:51;354.52;;;114.77;;
22565;SDS011;11449;51.330;19.378;2022-10-04T23:20:55;390.25;;;114.35;;
22565;SDS011;11449;51.330;19.378;2022-10-04T23:25:57;64.32;;;15.40;;
22565;SDS011;11449;51.330;19.378;2022-10-04T23:31:05;61.25;;;15.20;;
22565;SDS011;11449;51.330;19.378;2022-10-04T23:36:07;64.67;;;15.98;;
22565;SDS011;11449;51.330;19.378;2022-10-04T23:41:10;58.48;;;14.58;;
22565;SDS011;11449;51.330;19.378;2022-10-04T23:46:12;221.72;;;93.95;;
22565;SDS011;11449;51.330;19.378;2022-10-04T23:51:15;223.60;;;98.05;;
22565;SDS011;11449;51.330;19.378;2022-10-04T23:56:24;254.03;;;99.07;;
